sensor_id;sensor_type;location;lat;lon;timestamp;temperature;humidity
48454;DHT22;34261;55.678;12.464;2023-09-18T00:01:05;18.40;99.90
48454;DHT22;34261;55.678;12.464;2023-09-18T00:03:31;18.40;99.90
48454;DHT22;34261;55.678;12.464;2023-09-18T00:05:57;18.50;99.90
48454;DHT22;34261;55.678;12.464;2023-09-18T00:08:22;18.50;99.90
48454;DHT22;34261;55.678;12.464;2023-09-18T00:10:53;18.50;99.90
48454;DHT22;34261;55.678;12.464;2023-09-18T00:13:19;18.50;99.90
48454;DHT22;34261;55.678;12.464;2023-09-18T00:15:44;18.50;99.90
48454;DHT22;34261;55.678;12.464;2023-09-18T00:18:15;18.50;99.90
48454;DHT22;34261;55.678;12.464;2023-09-18T00:20:41;18.60;99.90
48454;DHT22;34261;55.678;12.464;2023-09-18T00:23:08;18.60;99.90
48454;DHT22;34261;55.678;12.464;2023-09-18T00:25:34;18.50;99.90
48454;DHT22;34261;55.678;12.464;2023-09-18T00:27:59;18.60;99.90
48454;DHT22;34261;55.678;12.464;2023-09-18T00:30:25;18.60;99.90
48454;DHT22;34261;55.678;12.464;2023-09-18T00:32:51;18.60;99.90
48454;DHT22;34261;55.678;12.464;2023-09-18T00:35:17;18.60;99.90
48454;DHT22;34261;55.678;12.464;2023-09-18T00:37:42;18.60;99.90
48454;DHT22;34261;55.678;12.464;2023-09-18T00:40:09;18.50;99.90
48454;DHT22;34261;55.678;12.464;2023-09-18T00:42:34;18.50;99.90
48454;DHT22;34261;55.678;12.464;2023-09-18T00:45:01;18.60;99.90
48454;DHT22;34261;55.678;12.464;2023-09-18T00:47:27;18.60;99.90
48454;DHT22;34261;55.678;12.464;2023-09-18T00:49:53;18.60;99.90
48454;DHT22;34261;55.678;12.464;2023-09-18T00:52:21;18.60;99.90
48454;DHT22;34261;55.678;12.464;2023-09-18T00:54:48;18.60;99.90
48454;DHT22;34261;55.678;12.464;2023-09-18T00:57:14;18.50;99.90
48454;DHT22;34261;55.678;12.464;2023-09-18T00:59:40;18.60;99.90
48454;DHT22;34261;55.678;12.464;2023-09-18T01:02:06;18.60;99.90
48454;DHT22;34261;55.678;12.464;2023-09-18T01:04:33;18.60;99.90
48454;DHT22;34261;55.678;12.464;2023-09-18T01:06:59;18.60;99.90
48454;DHT22;34261;55.678;12.464;2023-09-18T01:09:31;18.60;99.90
48454;DHT22;34261;55.678;12.464;2023-09-18T01:12:21;18.60;99.90
48454;DHT22;34261;55.678;12.464;2023-09-18T01:17:26;18.60;99.90
48454;DHT22;34261;55.678;12.464;2023-09-18T01:19:52;18.60;99.90
48454;DHT22;34261;55.678;12.464;2023-09-18T01:22:18;18.60;99.90
48454;DHT22;34261;55.678;12.464;2023-09-18T01:24:46;18.70;99.90
48454;DHT22;34261;55.678;12.464;2023-09-18T01:27:16;18.60;99.90
48454;DHT22;34261;55.678;12.464;2023-09-18T01:29:46;18.70;99.90
48454;DHT22;34261;55.678;12.464;2023-09-18T01:32:12;18.70;99.90
48454;DHT22;34261;55.678;12.464;2023-09-18T01:34:41;18.70;99.90
48454;DHT22;34261;55.678;12.464;2023-09-18T01:37:09;18.70;99.90
48454;DHT22;34261;55.678;12.464;2023-09-18T01:39:36;18.70;99.90
48454;DHT22;34261;55.678;12.464;2023-09-18T01:42:04;18.70;99.90
48454;DHT22;34261;55.678;12.464;2023-09-18T01:44:33;18.70;99.90
48454;DHT22;34261;55.678;12.464;2023-09-18T01:47:01;18.60;99.90
48454;DHT22;34261;55.678;12.464;2023-09-18T01:49:29;18.60;99.90
48454;DHT22;34261;55.678;12.464;2023-09-18T01:51:56;18.60;99.90
48454;DHT22;34261;55.678;12.464;2023-09-18T01:54:21;18.70;99.90
48454;DHT22;34261;55.678;12.464;2023-09-18T01:56:47;18.60;99.90
48454;DHT22;34261;55.678;12.464;2023-09-18T01:59:13;18.70;99.90
48454;DHT22;34261;55.678;12.464;2023-09-18T02:01:38;18.70;99.90
48454;DHT22;34261;55.678;12.464;2023-09-18T02:04:04;18.70;99.90
48454;DHT22;34261;55.678;12.464;2023-09-18T02:06:30;18.70;99.90
48454;DHT22;34261;55.678;12.464;2023-09-18T02:08:56;18.70;99.90
48454;DHT22;34261;55.678;12.464;2023-09-18T02:11:21;18.70;99.90
48454;DHT22;34261;55.678;12.464;2023-09-18T02:13:47;18.70;99.90
48454;DHT22;34261;55.678;12.464;2023-09-18T02:16:12;18.70;99.90
48454;DHT22;34261;55.678;12.464;2023-09-18T02:18:38;18.70;99.90
48454;DHT22;34261;55.678;12.464;2023-09-18T02:21:03;18.80;99.90
48454;DHT22;34261;55.678;12.464;2023-09-18T02:23:29;18.80;99.90
48454;DHT22;34261;55.678;12.464;2023-09-18T02:25:58;18.80;99.90
48454;DHT22;34261;55.678;12.464;2023-09-18T02:28:24;18.80;99.90
48454;DHT22;34261;55.678;12.464;2023-09-18T02:30:50;18.90;99.90
48454;DHT22;34261;55.678;12.464;2023-09-18T02:33:16;18.90;99.90
48454;DHT22;34261;55.678;12.464;2023-09-18T02:35:41;18.90;99.90
48454;DHT22;34261;55.678;12.464;2023-09-18T02:38:08;18.90;99.90
48454;DHT22;34261;55.678;12.464;2023-09-18T02:40:34;18.90;99.90
48454;DHT22;34261;55.678;12.464;2023-09-18T02:43:00;18.90;99.90
48454;DHT22;34261;55.678;12.464;2023-09-18T02:45:27;18.90;99.90
48454;DHT22;34261;55.678;12.464;2023-09-18T02:47:52;18.90;99.90
48454;DHT22;34261;55.678;12.464;2023-09-18T02:50:18;18.90;99.90
48454;DHT22;34261;55.678;12.464;2023-09-18T02:52:44;18.90;99.90
48454;DHT22;34261;55.678;12.464;2023-09-18T02:55:09;18.90;99.90
48454;DHT22;34261;55.678;12.464;2023-09-18T02:57:35;18.80;99.90
48454;DHT22;34261;55.678;12.464;2023-09-18T03:00:01;18.80;99.90
48454;DHT22;34261;55.678;12.464;2023-09-18T03:02:27;18.80;99.90
48454;DHT22;34261;55.678;12.464;2023-09-18T03:04:53;18.80;99.90
48454;DHT22;34261;55.678;12.464;2023-09-18T03:07:18;18.90;99.90
48454;DHT22;34261;55.678;12.464;2023-09-18T03:09:44;18.80;99.90
48454;DHT22;34261;55.678;12.464;2023-09-18T03:12:09;18.90;99.90
48454;DHT22;34261;55.678;12.464;2023-09-18T03:14:36;18.90;99.90
48454;DHT22;34261;55.678;12.464;2023-09-18T03:17:02;18.90;99.90
48454;DHT22;34261;55.678;12.464;2023-09-18T03:19:27;18.90;99.90
48454;DHT22;34261;55.678;12.464;2023-09-18T03:21:53;18.90;99.90
48454;DHT22;34261;55.678;12.464;2023-09-18T03:24:18;18.90;99.90
48454;DHT22;34261;55.678;12.464;2023-09-18T03:26:44;18.90;99.90
48454;DHT22;34261;55.678;12.464;2023-09-18T03:29:10;18.90;99.90
48454;DHT22;34261;55.678;12.464;2023-09-18T03:31:36;18.90;99.90
48454;DHT22;34261;55.678;12.464;2023-09-18T03:34:01;18.90;99.90
48454;DHT22;34261;55.678;12.464;2023-09-18T03:36:27;19.00;99.90
48454;DHT22;34261;55.678;12.464;2023-09-18T03:38:52;19.00;99.90
48454;DHT22;34261;55.678;12.464;2023-09-18T03:41:18;19.00;99.90
48454;DHT22;34261;55.678;12.464;2023-09-18T03:43:44;19.00;99.90
48454;DHT22;34261;55.678;12.464;2023-09-18T03:46:10;18.90;99.90
48454;DHT22;34261;55.678;12.464;2023-09-18T03:48:35;18.90;99.90
48454;DHT22;34261;55.678;12.464;2023-09-18T03:51:07;18.90;99.90
48454;DHT22;34261;55.678;12.464;2023-09-18T03:53:33;18.90;99.90
48454;DHT22;34261;55.678;12.464;2023-09-18T03:56:00;18.90;99.90
48454;DHT22;34261;55.678;12.464;2023-09-18T03:58:25;18.90;99.90
48454;DHT22;34261;55.678;12.464;2023-09-18T04:00:52;18.90;99.90
48454;DHT22;34261;55.678;12.464;2023-09-18T04:03:18;18.90;99.90
48454;DHT22;34261;55.678;12.464;2023-09-18T04:05:43;18.90;99.90
48454;DHT22;34261;55.678;12.464;2023-09-18T04:08:09;18.90;99.90
48454;DHT22;34261;55.678;12.464;2023-09-18T04:10:34;18.90;99.90
48454;DHT22;34261;55.678;12.464;2023-09-18T04:13:00;18.90;99.90
48454;DHT22;34261;55.678;12.464;2023-09-18T04:15:26;18.90;99.90
48454;DHT22;34261;55.678;12.464;2023-09-18T04:17:53;18.90;99.90
48454;DHT22;34261;55.678;12.464;2023-09-18T04:20:18;18.80;99.90
48454;DHT22;34261;55.678;12.464;2023-09-18T04:22:46;18.90;99.90
48454;DHT22;34261;55.678;12.464;2023-09-18T04:25:15;18.90;99.90
48454;DHT22;34261;55.678;12.464;2023-09-18T04:27:41;19.00;99.90
48454;DHT22;34261;55.678;12.464;2023-09-18T04:30:07;19.00;99.90
48454;DHT22;34261;55.678;12.464;2023-09-18T04:32:36;19.00;99.90
48454;DHT22;34261;55.678;12.464;2023-09-18T04:35:02;19.00;99.90
48454;DHT22;34261;55.678;12.464;2023-09-18T04:37:27;19.00;99.90
48454;DHT22;34261;55.678;12.464;2023-09-18T04:39:53;19.00;99.90
48454;DHT22;34261;55.678;12.464;2023-09-18T04:42:18;19.00;99.90
48454;DHT22;34261;55.678;12.464;2023-09-18T04:44:44;18.90;99.90
48454;DHT22;34261;55.678;12.464;2023-09-18T04:47:10;19.00;99.90
48454;DHT22;34261;55.678;12.464;2023-09-18T04:49:35;19.00;99.90
48454;DHT22;34261;55.678;12.464;2023-09-18T04:52:01;19.00;99.90
48454;DHT22;34261;55.678;12.464;2023-09-18T04:54:26;19.00;99.90
48454;DHT22;34261;55.678;12.464;2023-09-18T04:56:52;19.10;99.90
48454;DHT22;34261;55.678;12.464;2023-09-18T04:59:17;19.00;99.90
48454;DHT22;34261;55.678;12.464;2023-09-18T05:01:43;19.00;99.90
48454;DHT22;34261;55.678;12.464;2023-09-18T05:04:09;19.10;99.90
48454;DHT22;34261;55.678;12.464;2023-09-18T05:06:35;19.10;99.90
48454;DHT22;34261;55.678;12.464;2023-09-18T05:09:00;19.00;99.90
48454;DHT22;34261;55.678;12.464;2023-09-18T05:11:26;19.10;99.90
48454;DHT22;34261;55.678;12.464;2023-09-18T05:13:51;19.00;99.90
48454;DHT22;34261;55.678;12.464;2023-09-18T05:16:18;19.00;99.90
48454;DHT22;34261;55.678;12.464;2023-09-18T05:18:44;19.00;99.90
48454;DHT22;34261;55.678;12.464;2023-09-18T05:21:09;19.00;99.90
48454;DHT22;34261;55.678;12.464;2023-09-18T05:23:36;19.10;99.90
48454;DHT22;34261;55.678;12.464;2023-09-18T05:26:01;19.10;99.90
48454;DHT22;34261;55.678;12.464;2023-09-18T05:28:28;19.10;99.90
48454;DHT22;34261;55.678;12.464;2023-09-18T05:30:54;19.10;99.90
48454;DHT22;34261;55.678;12.464;2023-09-18T05:33:20;19.20;99.90
48454;DHT22;34261;55.678;12.464;2023-09-18T05:35:46;19.20;99.90
48454;DHT22;34261;55.678;12.464;2023-09-18T05:38:12;19.20;99.90
48454;DHT22;34261;55.678;12.464;2023-09-18T05:40:43;19.30;99.90
48454;DHT22;34261;55.678;12.464;2023-09-18T05:43:10;19.30;99.90
48454;DHT22;34261;55.678;12.464;2023-09-18T05:45:37;19.30;99.90
48454;DHT22;34261;55.678;12.464;2023-09-18T05:48:03;19.40;99.90
48454;DHT22;34261;55.678;12.464;2023-09-18T05:50:30;19.40;99.90
48454;DHT22;34261;55.678;12.464;2023-09-18T05:52:57;19.40;99.90
48454;DHT22;34261;55.678;12.464;2023-09-18T05:55:29;19.50;99.90
48454;DHT22;34261;55.678;12.464;2023-09-18T05:57:55;19.60;99.90
48454;DHT22;34261;55.678;12.464;2023-09-18T06:00:21;19.60;99.90
48454;DHT22;34261;55.678;12.464;2023-09-18T06:02:47;19.60;99.90
48454;DHT22;34261;55.678;12.464;2023-09-18T06:05:13;19.60;99.90
48454;DHT22;34261;55.678;12.464;2023-09-18T06:07:41;19.60;99.90
48454;DHT22;34261;55.678;12.464;2023-09-18T06:10:07;19.70;99.90
48454;DHT22;34261;55.678;12.464;2023-09-18T06:12:33;19.70;99.90
48454;DHT22;34261;55.678;12.464;2023-09-18T06:14:58;19.80;99.90
48454;DHT22;34261;55.678;12.464;2023-09-18T06:17:24;19.80;99.90
48454;DHT22;34261;55.678;12.464;2023-09-18T06:19:49;19.80;99.90
48454;DHT22;34261;55.678;12.464;2023-09-18T06:22:15;19.80;99.90
48454;DHT22;34261;55.678;12.464;2023-09-18T06:24:42;19.80;99.90
48454;DHT22;34261;55.678;12.464;2023-09-18T06:27:07;19.90;99.90
48454;DHT22;34261;55.678;12.464;2023-09-18T06:29:33;19.90;99.90
48454;DHT22;34261;55.678;12.464;2023-09-18T06:32:00;19.90;99.90
48454;DHT22;34261;55.678;12.464;2023-09-18T06:34:25;20.00;99.90
48454;DHT22;34261;55.678;12.464;2023-09-18T06:36:51;19.90;99.90
48454;DHT22;34261;55.678;12.464;2023-09-18T06:39:17;20.00;99.90
48454;DHT22;34261;55.678;12.464;2023-09-18T06:41:43;20.10;99.90
48454;DHT22;34261;55.678;12.464;2023-09-18T06:44:09;20.10;99.90
48454;DHT22;34261;55.678;12.464;2023-09-18T06:46:35;20.10;99.90
48454;DHT22;34261;55.678;12.464;2023-09-18T06:49:00;20.20;99.90
48454;DHT22;34261;55.678;12.464;2023-09-18T06:51:29;20.10;99.90
48454;DHT22;34261;55.678;12.464;2023-09-18T06:53:55;20.20;99.90
48454;DHT22;34261;55.678;12.464;2023-09-18T06:56:25;20.30;99.90
48454;DHT22;34261;55.678;12.464;2023-09-18T06:58:51;20.30;99.90
48454;DHT22;34261;55.678;12.464;2023-09-18T07:01:49;20.30;99.90
48454;DHT22;34261;55.678;12.464;2023-09-18T07:04:15;20.50;99.90
48454;DHT22;34261;55.678;12.464;2023-09-18T07:06:40;20.50;99.90
48454;DHT22;34261;55.678;12.464;2023-09-18T07:09:06;20.60;99.90
48454;DHT22;34261;55.678;12.464;2023-09-18T07:11:32;20.60;99.90
48454;DHT22;34261;55.678;12.464;2023-09-18T07:13:58;20.60;99.90
48454;DHT22;34261;55.678;12.464;2023-09-18T07:16:25;20.70;99.90
48454;DHT22;34261;55.678;12.464;2023-09-18T07:18:50;20.80;99.90
48454;DHT22;34261;55.678;12.464;2023-09-18T07:21:16;20.80;99.90
48454;DHT22;34261;55.678;12.464;2023-09-18T07:23:41;20.90;99.90
48454;DHT22;34261;55.678;12.464;2023-09-18T07:26:07;20.90;99.90
48454;DHT22;34261;55.678;12.464;2023-09-18T07:28:32;21.00;99.90
48454;DHT22;34261;55.678;12.464;2023-09-18T07:31:05;21.00;99.90
48454;DHT22;34261;55.678;12.464;2023-09-18T07:33:30;21.10;99.90
48454;DHT22;34261;55.678;12.464;2023-09-18T07:35:56;21.10;99.90
48454;DHT22;34261;55.678;12.464;2023-09-18T07:38:23;21.10;99.90
48454;DHT22;34261;55.678;12.464;2023-09-18T07:40:48;21.10;99.90
48454;DHT22;34261;55.678;12.464;2023-09-18T07:43:14;21.20;99.90
48454;DHT22;34261;55.678;12.464;2023-09-18T07:45:41;21.30;99.90
48454;DHT22;34261;55.678;12.464;2023-09-18T07:48:07;21.30;99.90
48454;DHT22;34261;55.678;12.464;2023-09-18T07:50:34;21.30;99.90
48454;DHT22;34261;55.678;12.464;2023-09-18T07:53:00;21.30;99.90
48454;DHT22;34261;55.678;12.464;2023-09-18T07:55:26;21.30;99.90
48454;DHT22;34261;55.678;12.464;2023-09-18T07:57:52;21.30;99.90
48454;DHT22;34261;55.678;12.464;2023-09-18T08:00:18;21.40;99.90
48454;DHT22;34261;55.678;12.464;2023-09-18T08:02:44;21.40;99.90
48454;DHT22;34261;55.678;12.464;2023-09-18T08:05:09;21.40;99.90
48454;DHT22;34261;55.678;12.464;2023-09-18T08:07:36;21.40;99.90
48454;DHT22;34261;55.678;12.464;2023-09-18T08:10:03;21.60;99.90
48454;DHT22;34261;55.678;12.464;2023-09-18T08:12:32;21.60;99.90
48454;DHT22;34261;55.678;12.464;2023-09-18T08:14:58;21.60;99.90
48454;DHT22;34261;55.678;12.464;2023-09-18T08:17:24;21.60;99.90
48454;DHT22;34261;55.678;12.464;2023-09-18T08:19:51;21.60;99.90
48454;DHT22;34261;55.678;12.464;2023-09-18T08:22:17;21.70;99.90
48454;DHT22;34261;55.678;12.464;2023-09-18T08:24:45;21.70;99.90
48454;DHT22;34261;55.678;12.464;2023-09-18T08:27:13;21.70;99.90
48454;DHT22;34261;55.678;12.464;2023-09-18T08:29:38;21.80;99.90
48454;DHT22;34261;55.678;12.464;2023-09-18T08:32:04;21.90;99.90
48454;DHT22;34261;55.678;12.464;2023-09-18T08:34:29;21.90;99.90
48454;DHT22;34261;55.678;12.464;2023-09-18T08:36:55;21.90;99.90
48454;DHT22;34261;55.678;12.464;2023-09-18T08:39:21;21.90;99.90
48454;DHT22;34261;55.678;12.464;2023-09-18T08:41:50;21.90;99.90
48454;DHT22;34261;55.678;12.464;2023-09-18T08:44:17;22.00;99.90
48454;DHT22;34261;55.678;12.464;2023-09-18T08:46:43;22.10;99.90
48454;DHT22;34261;55.678;12.464;2023-09-18T08:49:10;22.40;99.90
48454;DHT22;34261;55.678;12.464;2023-09-18T08:51:37;22.50;99.90
48454;DHT22;34261;55.678;12.464;2023-09-18T08:54:04;22.50;99.90
48454;DHT22;34261;55.678;12.464;2023-09-18T08:56:31;22.50;99.90
48454;DHT22;34261;55.678;12.464;2023-09-18T08:58:58;22.50;99.90
48454;DHT22;34261;55.678;12.464;2023-09-18T09:01:25;22.50;99.90
48454;DHT22;34261;55.678;12.464;2023-09-18T09:03:50;22.50;99.90
48454;DHT22;34261;55.678;12.464;2023-09-18T09:06:16;22.50;99.90
48454;DHT22;34261;55.678;12.464;2023-09-18T09:08:42;22.70;99.90
48454;DHT22;34261;55.678;12.464;2023-09-18T09:11:08;22.90;99.90
48454;DHT22;34261;55.678;12.464;2023-09-18T09:13:34;23.10;99.90
48454;DHT22;34261;55.678;12.464;2023-09-18T09:15:59;23.20;99.90
48454;DHT22;34261;55.678;12.464;2023-09-18T09:18:29;23.30;99.90
48454;DHT22;34261;55.678;12.464;2023-09-18T09:20:59;23.60;99.90
48454;DHT22;34261;55.678;12.464;2023-09-18T09:23:29;23.60;99.90
48454;DHT22;34261;55.678;12.464;2023-09-18T09:26:15;23.60;99.90
48454;DHT22;34261;55.678;12.464;2023-09-18T09:28:43;23.70;99.90
48454;DHT22;34261;55.678;12.464;2023-09-18T09:31:10;23.80;99.90
48454;DHT22;34261;55.678;12.464;2023-09-18T09:33:36;23.90;99.90
48454;DHT22;34261;55.678;12.464;2023-09-18T09:36:11;23.90;99.90
48454;DHT22;34261;55.678;12.464;2023-09-18T09:38:36;23.90;99.90
48454;DHT22;34261;55.678;12.464;2023-09-18T09:41:03;23.80;99.90
48454;DHT22;34261;55.678;12.464;2023-09-18T09:43:32;23.90;99.90
48454;DHT22;34261;55.678;12.464;2023-09-18T09:45:59;24.00;99.90
48454;DHT22;34261;55.678;12.464;2023-09-18T09:48:25;23.90;99.90
48454;DHT22;34261;55.678;12.464;2023-09-18T09:50:51;24.00;99.90
48454;DHT22;34261;55.678;12.464;2023-09-18T09:53:18;24.00;99.90
48454;DHT22;34261;55.678;12.464;2023-09-18T09:55:44;24.20;99.90
48454;DHT22;34261;55.678;12.464;2023-09-18T09:58:11;24.40;99.90
48454;DHT22;34261;55.678;12.464;2023-09-18T10:03:19;24.60;99.90
48454;DHT22;34261;55.678;12.464;2023-09-18T10:05:50;24.60;99.90
48454;DHT22;34261;55.678;12.464;2023-09-18T10:08:17;24.60;99.90
48454;DHT22;34261;55.678;12.464;2023-09-18T10:10:46;24.60;99.90
48454;DHT22;34261;55.678;12.464;2023-09-18T10:13:23;24.60;99.90
48454;DHT22;34261;55.678;12.464;2023-09-18T10:15:52;24.70;99.90
48454;DHT22;34261;55.678;12.464;2023-09-18T10:18:53;24.90;99.90
48454;DHT22;34261;55.678;12.464;2023-09-18T10:21:38;25.00;99.90
48454;DHT22;34261;55.678;12.464;2023-09-18T10:24:28;25.20;99.90
48454;DHT22;34261;55.678;12.464;2023-09-18T10:27:01;25.40;99.90
48454;DHT22;34261;55.678;12.464;2023-09-18T10:29:31;25.70;99.90
48454;DHT22;34261;55.678;12.464;2023-09-18T10:31:58;25.70;99.90
48454;DHT22;34261;55.678;12.464;2023-09-18T10:34:25;25.60;99.90
48454;DHT22;34261;55.678;12.464;2023-09-18T10:36:54;25.50;99.90
48454;DHT22;34261;55.678;12.464;2023-09-18T10:39:20;25.30;99.90
48454;DHT22;34261;55.678;12.464;2023-09-18T10:41:52;25.20;99.90
48454;DHT22;34261;55.678;12.464;2023-09-18T10:44:18;25.10;99.90
48454;DHT22;34261;55.678;12.464;2023-09-18T10:46:48;24.90;99.90
48454;DHT22;34261;55.678;12.464;2023-09-18T10:49:18;24.60;99.90
48454;DHT22;34261;55.678;12.464;2023-09-18T10:51:46;24.60;99.90
48454;DHT22;34261;55.678;12.464;2023-09-18T10:54:16;24.60;99.90
48454;DHT22;34261;55.678;12.464;2023-09-18T10:56:42;24.60;99.90
48454;DHT22;34261;55.678;12.464;2023-09-18T10:59:08;24.80;99.90
48454;DHT22;34261;55.678;12.464;2023-09-18T11:01:37;25.00;99.90
48454;DHT22;34261;55.678;12.464;2023-09-18T11:04:07;25.40;99.90
48454;DHT22;34261;55.678;12.464;2023-09-18T11:09:20;25.80;99.90
48454;DHT22;34261;55.678;12.464;2023-09-18T11:11:46;25.80;99.90
48454;DHT22;34261;55.678;12.464;2023-09-18T11:14:14;25.70;99.90
48454;DHT22;34261;55.678;12.464;2023-09-18T11:16:40;25.60;99.90
48454;DHT22;34261;55.678;12.464;2023-09-18T11:19:16;25.50;99.90
48454;DHT22;34261;55.678;12.464;2023-09-18T11:21:43;25.30;99.90
48454;DHT22;34261;55.678;12.464;2023-09-18T11:24:16;25.30;99.90
48454;DHT22;34261;55.678;12.464;2023-09-18T11:26:44;25.20;99.90
48454;DHT22;34261;55.678;12.464;2023-09-18T11:29:13;25.10;99.90
48454;DHT22;34261;55.678;12.464;2023-09-18T11:31:47;24.90;99.90
48454;DHT22;34261;55.678;12.464;2023-09-18T11:34:16;24.80;99.90
48454;DHT22;34261;55.678;12.464;2023-09-18T11:36:44;24.70;99.90
48454;DHT22;34261;55.678;12.464;2023-09-18T11:39:10;24.50;99.90
48454;DHT22;34261;55.678;12.464;2023-09-18T11:41:37;24.40;99.90
48454;DHT22;34261;55.678;12.464;2023-09-18T11:46:48;24.30;99.90
48454;DHT22;34261;55.678;12.464;2023-09-18T11:49:19;24.00;99.90
48454;DHT22;34261;55.678;12.464;2023-09-18T11:51:47;24.00;99.90
48454;DHT22;34261;55.678;12.464;2023-09-18T11:54:13;24.00;99.90
48454;DHT22;34261;55.678;12.464;2023-09-18T11:56:40;24.10;99.90
48454;DHT22;34261;55.678;12.464;2023-09-18T11:59:06;24.00;99.90
48454;DHT22;34261;55.678;12.464;2023-09-18T12:01:32;24.00;99.90
48454;DHT22;34261;55.678;12.464;2023-09-18T12:04:07;24.00;99.90
48454;DHT22;34261;55.678;12.464;2023-09-18T12:06:38;24.00;99.90
48454;DHT22;34261;55.678;12.464;2023-09-18T12:09:05;24.00;99.90
48454;DHT22;34261;55.678;12.464;2023-09-18T12:11:35;24.00;99.90
48454;DHT22;34261;55.678;12.464;2023-09-18T12:14:04;23.90;99.90
48454;DHT22;34261;55.678;12.464;2023-09-18T12:16:30;23.90;99.90
48454;DHT22;34261;55.678;12.464;2023-09-18T12:18:56;23.90;99.90
48454;DHT22;34261;55.678;12.464;2023-09-18T12:21:22;23.90;99.90
48454;DHT22;34261;55.678;12.464;2023-09-18T12:23:48;24.00;99.90
48454;DHT22;34261;55.678;12.464;2023-09-18T12:26:15;24.10;99.90
48454;DHT22;34261;55.678;12.464;2023-09-18T12:28:44;24.10;99.90
48454;DHT22;34261;55.678;12.464;2023-09-18T12:31:15;24.10;99.90
48454;DHT22;34261;55.678;12.464;2023-09-18T12:33:43;24.10;99.90
48454;DHT22;34261;55.678;12.464;2023-09-18T12:36:18;24.20;99.90
48454;DHT22;34261;55.678;12.464;2023-09-18T12:38:45;24.30;99.90
48454;DHT22;34261;55.678;12.464;2023-09-18T12:41:20;24.30;99.90
48454;DHT22;34261;55.678;12.464;2023-09-18T12:43:46;24.40;99.90
48454;DHT22;34261;55.678;12.464;2023-09-18T12:46:12;24.30;99.90
48454;DHT22;34261;55.678;12.464;2023-09-18T12:48:39;24.30;99.90
48454;DHT22;34261;55.678;12.464;2023-09-18T12:51:10;24.10;99.90
48454;DHT22;34261;55.678;12.464;2023-09-18T12:53:36;24.10;99.90
48454;DHT22;34261;55.678;12.464;2023-09-18T12:56:11;24.20;99.90
48454;DHT22;34261;55.678;12.464;2023-09-18T12:58:38;24.10;99.90
48454;DHT22;34261;55.678;12.464;2023-09-18T13:01:06;24.10;99.90
48454;DHT22;34261;55.678;12.464;2023-09-18T13:03:43;24.10;99.90
48454;DHT22;34261;55.678;12.464;2023-09-18T13:06:10;24.20;99.90
48454;DHT22;34261;55.678;12.464;2023-09-18T13:08:36;24.20;99.90
48454;DHT22;34261;55.678;12.464;2023-09-18T13:11:02;24.10;99.90
48454;DHT22;34261;55.678;12.464;2023-09-18T13:13:32;24.20;99.90
48454;DHT22;34261;55.678;12.464;2023-09-18T13:15:59;24.20;99.90
48454;DHT22;34261;55.678;12.464;2023-09-18T13:18:26;24.30;99.90
48454;DHT22;34261;55.678;12.464;2023-09-18T13:20:52;24.40;99.90
48454;DHT22;34261;55.678;12.464;2023-09-18T13:23:19;24.40;99.90
48454;DHT22;34261;55.678;12.464;2023-09-18T13:25:44;24.40;99.90
48454;DHT22;34261;55.678;12.464;2023-09-18T13:28:13;24.30;99.90
48454;DHT22;34261;55.678;12.464;2023-09-18T13:30:41;24.30;99.90
48454;DHT22;34261;55.678;12.464;2023-09-18T13:33:12;24.20;99.90
48454;DHT22;34261;55.678;12.464;2023-09-18T13:35:40;24.10;99.90
48454;DHT22;34261;55.678;12.464;2023-09-18T13:38:07;24.10;99.90
48454;DHT22;34261;55.678;12.464;2023-09-18T13:40:43;24.00;99.90
48454;DHT22;34261;55.678;12.464;2023-09-18T13:43:10;23.80;99.90
48454;DHT22;34261;55.678;12.464;2023-09-18T13:45:37;23.80;99.90
48454;DHT22;34261;55.678;12.464;2023-09-18T13:48:06;23.70;99.90
48454;DHT22;34261;55.678;12.464;2023-09-18T13:50:33;23.60;99.90
48454;DHT22;34261;55.678;12.464;2023-09-18T13:52:59;23.60;99.90
48454;DHT22;34261;55.678;12.464;2023-09-18T13:55:25;23.60;99.90
48454;DHT22;34261;55.678;12.464;2023-09-18T13:57:50;23.40;99.90
48454;DHT22;34261;55.678;12.464;2023-09-18T14:00:16;23.30;99.90
48454;DHT22;34261;55.678;12.464;2023-09-18T14:02:42;23.30;99.90
48454;DHT22;34261;55.678;12.464;2023-09-18T14:05:09;23.30;99.90
48454;DHT22;34261;55.678;12.464;2023-09-18T14:07:35;23.20;99.90
48454;DHT22;34261;55.678;12.464;2023-09-18T14:10:01;23.20;99.90
48454;DHT22;34261;55.678;12.464;2023-09-18T14:12:30;23.20;99.90
48454;DHT22;34261;55.678;12.464;2023-09-18T14:14:56;23.20;99.90
48454;DHT22;34261;55.678;12.464;2023-09-18T14:17:22;23.20;99.90
48454;DHT22;34261;55.678;12.464;2023-09-18T14:19:48;23.10;99.90
48454;DHT22;34261;55.678;12.464;2023-09-18T14:22:14;23.10;99.90
48454;DHT22;34261;55.678;12.464;2023-09-18T14:24:40;23.00;99.90
48454;DHT22;34261;55.678;12.464;2023-09-18T14:27:06;23.00;99.90
48454;DHT22;34261;55.678;12.464;2023-09-18T14:29:33;22.70;99.90
48454;DHT22;34261;55.678;12.464;2023-09-18T14:32:00;22.60;99.90
48454;DHT22;34261;55.678;12.464;2023-09-18T14:34:26;22.40;99.90
48454;DHT22;34261;55.678;12.464;2023-09-18T14:36:52;22.40;99.90
48454;DHT22;34261;55.678;12.464;2023-09-18T14:39:17;22.20;99.90
48454;DHT22;34261;55.678;12.464;2023-09-18T14:41:43;22.10;99.90
48454;DHT22;34261;55.678;12.464;2023-09-18T14:44:09;22.00;99.90
48454;DHT22;34261;55.678;12.464;2023-09-18T14:46:36;21.90;99.90
48454;DHT22;34261;55.678;12.464;2023-09-18T14:49:06;21.80;99.90
48454;DHT22;34261;55.678;12.464;2023-09-18T14:51:34;21.80;99.90
48454;DHT22;34261;55.678;12.464;2023-09-18T14:54:00;21.80;99.90
48454;DHT22;34261;55.678;12.464;2023-09-18T14:56:27;21.80;99.90
48454;DHT22;34261;55.678;12.464;2023-09-18T14:58:53;21.90;99.90
48454;DHT22;34261;55.678;12.464;2023-09-18T15:01:21;21.80;99.90
48454;DHT22;34261;55.678;12.464;2023-09-18T15:03:47;21.70;99.90
48454;DHT22;34261;55.678;12.464;2023-09-18T15:06:16;21.70;99.90
48454;DHT22;34261;55.678;12.464;2023-09-18T15:08:43;21.70;99.90
48454;DHT22;34261;55.678;12.464;2023-09-18T15:11:10;21.70;99.90
48454;DHT22;34261;55.678;12.464;2023-09-18T15:13:36;21.70;99.90
48454;DHT22;34261;55.678;12.464;2023-09-18T15:16:02;21.70;99.90
48454;DHT22;34261;55.678;12.464;2023-09-18T15:18:28;21.70;99.90
48454;DHT22;34261;55.678;12.464;2023-09-18T15:20:54;21.60;99.90
48454;DHT22;34261;55.678;12.464;2023-09-18T15:23:23;21.60;99.90
48454;DHT22;34261;55.678;12.464;2023-09-18T15:25:50;21.50;99.90